Leewood, West Virginia
Current Conditions -  °F | °C
As of 4:54 AM on Thursday 23 Oct 2014 (Local Time) from KCRW Reporting Station
Overcast Overcast  
Wind Chill: 45°   Ceiling: 2900
Heat Index: 47°   Visibility: 10mi
Dew Point: 42°   Wind: 5mph
Humidity: 83%   Direction: 320°NW
Pressure: 30.2"   Gusts: NA
Location:  38.07°N, 81.45°W
Report Text: KCRW 230854Z 32004KT 10SM OVC029 08/06 A3020 RMK AO2 SLP226 T00830056 53003
Loading
Personal Weather Stations






























Interactive Weather Map New forecast layout! Learn more

10-Day Weather Forecast

Advertisements
Track Severe Weather on mobile